sensor_id;sensor_type;location;lat;lon;timestamp;temperature;humidity
74224;SHT31;62585;49.706;18.216;2023-08-31T00:00:42;17.65;82.36
74224;SHT31;62585;49.706;18.216;2023-08-31T00:03:27;17.50;82.18
74224;SHT31;62585;49.706;18.216;2023-08-31T00:05:52;17.49;82.46
74224;SHT31;62585;49.706;18.216;2023-08-31T00:08:18;17.56;82.46
74224;SHT31;62585;49.706;18.216;2023-08-31T00:10:44;17.67;82.10
74224;SHT31;62585;49.706;18.216;2023-08-31T00:13:10;17.67;81.72
74224;SHT31;62585;49.706;18.216;2023-08-31T00:15:37;17.72;82.05
74224;SHT31;62585;49.706;18.216;2023-08-31T00:18:04;17.67;82.74
74224;SHT31;62585;49.706;18.216;2023-08-31T00:20:32;17.62;82.83
74224;SHT31;62585;49.706;18.216;2023-08-31T00:23:01;17.52;83.44
74224;SHT31;62585;49.706;18.216;2023-08-31T00:25:27;17.46;83.72
74224;SHT31;62585;49.706;18.216;2023-08-31T00:27:53;17.36;83.57
74224;SHT31;62585;49.706;18.216;2023-08-31T00:30:19;17.40;83.69
74224;SHT31;62585;49.706;18.216;2023-08-31T00:32:45;17.52;83.43
74224;SHT31;62585;49.706;18.216;2023-08-31T00:35:13;17.53;83.01
74224;SHT31;62585;49.706;18.216;2023-08-31T00:37:38;17.62;82.77
74224;SHT31;62585;49.706;18.216;2023-08-31T00:40:05;17.22;84.13
74224;SHT31;62585;49.706;18.216;2023-08-31T00:42:32;17.04;84.79
74224;SHT31;62585;49.706;18.216;2023-08-31T00:44:58;17.21;84.39
74224;SHT31;62585;49.706;18.216;2023-08-31T00:47:24;17.14;84.59
74224;SHT31;62585;49.706;18.216;2023-08-31T00:49:50;16.98;85.01
74224;SHT31;62585;49.706;18.216;2023-08-31T00:52:16;17.00;85.13
74224;SHT31;62585;49.706;18.216;2023-08-31T00:54:45;16.66;86.08
74224;SHT31;62585;49.706;18.216;2023-08-31T00:57:11;16.67;86.24
74224;SHT31;62585;49.706;18.216;2023-08-31T00:59:37;16.80;85.81
74224;SHT31;62585;49.706;18.216;2023-08-31T01:02:08;16.87;85.72
74224;SHT31;62585;49.706;18.216;2023-08-31T01:05:07;17.07;85.10
74224;SHT31;62585;49.706;18.216;2023-08-31T01:07:58;17.12;84.65
74224;SHT31;62585;49.706;18.216;2023-08-31T01:10:47;17.28;84.31
74224;SHT31;62585;49.706;18.216;2023-08-31T01:13:15;17.24;84.12
74224;SHT31;62585;49.706;18.216;2023-08-31T01:15:46;17.18;84.56
74224;SHT31;62585;49.706;18.216;2023-08-31T01:18:16;17.03;84.84
74224;SHT31;62585;49.706;18.216;2023-08-31T01:20:55;17.27;84.30
74224;SHT31;62585;49.706;18.216;2023-08-31T01:23:42;17.25;84.77
74224;SHT31;62585;49.706;18.216;2023-08-31T01:26:09;17.06;84.73
74224;SHT31;62585;49.706;18.216;2023-08-31T01:28:35;17.19;84.66
74224;SHT31;62585;49.706;18.216;2023-08-31T01:31:04;17.24;84.49
74224;SHT31;62585;49.706;18.216;2023-08-31T01:33:31;17.27;84.34
74224;SHT31;62585;49.706;18.216;2023-08-31T01:35:59;16.85;85.06
74224;SHT31;62585;49.706;18.216;2023-08-31T01:38:28;16.63;85.87
74224;SHT31;62585;49.706;18.216;2023-08-31T01:41:04;16.45;86.40
74224;SHT31;62585;49.706;18.216;2023-08-31T01:43:31;16.32;86.77
74224;SHT31;62585;49.706;18.216;2023-08-31T01:46:00;16.43;86.38
74224;SHT31;62585;49.706;18.216;2023-08-31T01:48:25;16.43;86.36
74224;SHT31;62585;49.706;18.216;2023-08-31T01:50:51;16.49;86.44
74224;SHT31;62585;49.706;18.216;2023-08-31T01:53:17;16.69;85.60
74224;SHT31;62585;49.706;18.216;2023-08-31T01:55:43;16.61;85.66
74224;SHT31;62585;49.706;18.216;2023-08-31T01:58:08;16.77;85.73
74224;SHT31;62585;49.706;18.216;2023-08-31T02:00:34;16.84;85.84
74224;SHT31;62585;49.706;18.216;2023-08-31T02:03:02;16.95;85.48
74224;SHT31;62585;49.706;18.216;2023-08-31T02:05:28;17.07;85.13
74224;SHT31;62585;49.706;18.216;2023-08-31T02:07:54;17.06;84.88
74224;SHT31;62585;49.706;18.216;2023-08-31T02:15:30;17.11;83.67
74224;SHT31;62585;49.706;18.216;2023-08-31T02:17:56;16.81;84.14
74224;SHT31;62585;49.706;18.216;2023-08-31T02:20:21;16.87;84.12
74224;SHT31;62585;49.706;18.216;2023-08-31T02:22:47;16.85;83.91
74224;SHT31;62585;49.706;18.216;2023-08-31T02:25:14;16.66;84.72
74224;SHT31;62585;49.706;18.216;2023-08-31T02:27:42;16.87;84.47
74224;SHT31;62585;49.706;18.216;2023-08-31T02:30:08;17.07;83.99
74224;SHT31;62585;49.706;18.216;2023-08-31T02:32:34;17.00;84.27
74224;SHT31;62585;49.706;18.216;2023-08-31T02:35:00;16.88;83.74
74224;SHT31;62585;49.706;18.216;2023-08-31T02:37:26;16.92;84.27
74224;SHT31;62585;49.706;18.216;2023-08-31T02:39:51;17.00;84.59
74224;SHT31;62585;49.706;18.216;2023-08-31T02:42:17;17.11;84.21
74224;SHT31;62585;49.706;18.216;2023-08-31T02:44:43;17.10;83.74
74224;SHT31;62585;49.706;18.216;2023-08-31T02:47:09;17.08;83.87
74224;SHT31;62585;49.706;18.216;2023-08-31T02:49:34;17.08;83.52
74224;SHT31;62585;49.706;18.216;2023-08-31T02:52:00;17.04;83.47
74224;SHT31;62585;49.706;18.216;2023-08-31T02:54:26;17.14;83.31
74224;SHT31;62585;49.706;18.216;2023-08-31T02:56:52;16.98;83.52
74224;SHT31;62585;49.706;18.216;2023-08-31T02:59:17;17.06;83.51
74224;SHT31;62585;49.706;18.216;2023-08-31T03:01:44;16.98;83.81
74224;SHT31;62585;49.706;18.216;2023-08-31T03:04:12;16.98;84.08
74224;SHT31;62585;49.706;18.216;2023-08-31T03:06:38;17.06;83.74
74224;SHT31;62585;49.706;18.216;2023-08-31T03:09:03;16.98;84.04
74224;SHT31;62585;49.706;18.216;2023-08-31T03:11:30;16.97;84.08
74224;SHT31;62585;49.706;18.216;2023-08-31T03:13:56;16.94;84.12
74224;SHT31;62585;49.706;18.216;2023-08-31T03:16:21;16.61;84.98
74224;SHT31;62585;49.706;18.216;2023-08-31T03:18:47;16.66;84.76
74224;SHT31;62585;49.706;18.216;2023-08-31T03:21:13;16.77;84.49
74224;SHT31;62585;49.706;18.216;2023-08-31T03:23:38;16.73;84.55
74224;SHT31;62585;49.706;18.216;2023-08-31T03:26:08;16.79;84.53
74224;SHT31;62585;49.706;18.216;2023-08-31T03:28:34;16.85;83.98
74224;SHT31;62585;49.706;18.216;2023-08-31T03:31:00;16.97;83.53
74224;SHT31;62585;49.706;18.216;2023-08-31T03:33:26;16.81;83.63
74224;SHT31;62585;49.706;18.216;2023-08-31T03:35:59;16.85;84.00
74224;SHT31;62585;49.706;18.216;2023-08-31T03:38:25;17.01;83.61
74224;SHT31;62585;49.706;18.216;2023-08-31T03:40:54;16.94;83.66
74224;SHT31;62585;49.706;18.216;2023-08-31T03:43:20;16.87;83.46
74224;SHT31;62585;49.706;18.216;2023-08-31T03:45:46;16.83;83.81
74224;SHT31;62585;49.706;18.216;2023-08-31T03:48:12;16.76;83.98
74224;SHT31;62585;49.706;18.216;2023-08-31T03:50:38;16.88;83.98
74224;SHT31;62585;49.706;18.216;2023-08-31T03:53:03;16.85;83.91
74224;SHT31;62585;49.706;18.216;2023-08-31T03:55:29;16.94;83.72
74224;SHT31;62585;49.706;18.216;2023-08-31T03:57:55;16.92;83.58
74224;SHT31;62585;49.706;18.216;2023-08-31T04:00:21;16.97;83.37
74224;SHT31;62585;49.706;18.216;2023-08-31T04:02:46;16.95;83.18
74224;SHT31;62585;49.706;18.216;2023-08-31T04:05:12;16.98;83.17
74224;SHT31;62585;49.706;18.216;2023-08-31T04:07:40;17.03;83.20
74224;SHT31;62585;49.706;18.216;2023-08-31T04:10:07;17.03;83.15
74224;SHT31;62585;49.706;18.216;2023-08-31T04:12:33;17.07;82.87
74224;SHT31;62585;49.706;18.216;2023-08-31T04:15:00;17.12;82.82
74224;SHT31;62585;49.706;18.216;2023-08-31T04:17:26;17.18;82.65
74224;SHT31;62585;49.706;18.216;2023-08-31T04:19:52;16.97;82.90
74224;SHT31;62585;49.706;18.216;2023-08-31T04:22:17;16.85;83.39
74224;SHT31;62585;49.706;18.216;2023-08-31T04:24:43;16.97;83.12
74224;SHT31;62585;49.706;18.216;2023-08-31T04:27:09;17.06;82.87
74224;SHT31;62585;49.706;18.216;2023-08-31T04:29:35;16.97;83.23
74224;SHT31;62585;49.706;18.216;2023-08-31T04:32:01;16.98;82.80
74224;SHT31;62585;49.706;18.216;2023-08-31T04:34:27;16.98;82.84
74224;SHT31;62585;49.706;18.216;2023-08-31T04:36:52;16.84;83.04
74224;SHT31;62585;49.706;18.216;2023-08-31T04:39:18;16.66;83.56
74224;SHT31;62585;49.706;18.216;2023-08-31T04:41:44;16.63;83.60
74224;SHT31;62585;49.706;18.216;2023-08-31T04:44:10;16.33;84.39
74224;SHT31;62585;49.706;18.216;2023-08-31T04:46:38;16.19;85.12
74224;SHT31;62585;49.706;18.216;2023-08-31T04:49:04;16.11;85.35
74224;SHT31;62585;49.706;18.216;2023-08-31T04:51:34;16.15;85.42
74224;SHT31;62585;49.706;18.216;2023-08-31T04:54:02;15.91;85.51
74224;SHT31;62585;49.706;18.216;2023-08-31T04:56:30;15.93;86.20
74224;SHT31;62585;49.706;18.216;2023-08-31T04:58:57;16.09;85.66
74224;SHT31;62585;49.706;18.216;2023-08-31T05:01:23;16.32;85.16
74224;SHT31;62585;49.706;18.216;2023-08-31T05:03:49;16.43;84.63
74224;SHT31;62585;49.706;18.216;2023-08-31T05:06:14;16.46;84.47
74224;SHT31;62585;49.706;18.216;2023-08-31T05:08:40;16.50;83.94
74224;SHT31;62585;49.706;18.216;2023-08-31T05:11:06;16.61;83.82
74224;SHT31;62585;49.706;18.216;2023-08-31T05:13:32;16.79;83.27
74224;SHT31;62585;49.706;18.216;2023-08-31T05:15:57;16.81;83.50
74224;SHT31;62585;49.706;18.216;2023-08-31T05:18:23;16.90;83.23
74224;SHT31;62585;49.706;18.216;2023-08-31T05:20:49;16.60;83.93
74224;SHT31;62585;49.706;18.216;2023-08-31T05:23:15;16.71;83.78
74224;SHT31;62585;49.706;18.216;2023-08-31T05:25:44;16.36;84.82
74224;SHT31;62585;49.706;18.216;2023-08-31T05:28:10;16.32;84.61
74224;SHT31;62585;49.706;18.216;2023-08-31T05:30:36;16.34;85.05
74224;SHT31;62585;49.706;18.216;2023-08-31T05:33:02;16.49;84.74
74224;SHT31;62585;49.706;18.216;2023-08-31T05:35:29;16.56;84.84
74224;SHT31;62585;49.706;18.216;2023-08-31T05:37:55;16.48;84.92
74224;SHT31;62585;49.706;18.216;2023-08-31T05:40:21;16.60;84.50
74224;SHT31;62585;49.706;18.216;2023-08-31T05:42:47;16.80;84.24
74224;SHT31;62585;49.706;18.216;2023-08-31T05:45:13;16.88;84.35
74224;SHT31;62585;49.706;18.216;2023-08-31T05:47:40;16.76;84.62
74224;SHT31;62585;49.706;18.216;2023-08-31T05:50:06;16.52;85.53
74224;SHT31;62585;49.706;18.216;2023-08-31T05:52:32;16.30;85.56
74224;SHT31;62585;49.706;18.216;2023-08-31T05:54:58;16.38;85.93
74224;SHT31;62585;49.706;18.216;2023-08-31T05:57:25;16.23;85.56
74224;SHT31;62585;49.706;18.216;2023-08-31T05:59:53;16.18;86.43
74224;SHT31;62585;49.706;18.216;2023-08-31T06:02:21;16.09;86.46
74224;SHT31;62585;49.706;18.216;2023-08-31T06:04:47;16.12;86.97
74224;SHT31;62585;49.706;18.216;2023-08-31T06:07:13;16.34;86.69
74224;SHT31;62585;49.706;18.216;2023-08-31T06:09:38;16.57;85.68
74224;SHT31;62585;49.706;18.216;2023-08-31T06:12:05;16.50;85.14
74224;SHT31;62585;49.706;18.216;2023-08-31T06:14:31;16.69;85.06
74224;SHT31;62585;49.706;18.216;2023-08-31T06:16:58;16.63;85.37
74224;SHT31;62585;49.706;18.216;2023-08-31T06:19:24;16.50;85.28
74224;SHT31;62585;49.706;18.216;2023-08-31T06:21:50;16.45;85.44
74224;SHT31;62585;49.706;18.216;2023-08-31T06:24:15;16.52;85.30
74224;SHT31;62585;49.706;18.216;2023-08-31T06:26:41;16.48;85.82
74224;SHT31;62585;49.706;18.216;2023-08-31T06:29:13;16.70;84.60
74224;SHT31;62585;49.706;18.216;2023-08-31T06:31:57;16.87;84.24
74224;SHT31;62585;49.706;18.216;2023-08-31T06:34:31;17.18;84.03
74224;SHT31;62585;49.706;18.216;2023-08-31T06:36:58;17.38;83.36
74224;SHT31;62585;49.706;18.216;2023-08-31T06:39:24;17.56;83.02
74224;SHT31;62585;49.706;18.216;2023-08-31T06:41:50;17.56;83.20
74224;SHT31;62585;49.706;18.216;2023-08-31T06:44:16;17.32;82.07
74224;SHT31;62585;49.706;18.216;2023-08-31T06:46:42;17.35;83.48
74224;SHT31;62585;49.706;18.216;2023-08-31T06:49:08;17.42;83.11
74224;SHT31;62585;49.706;18.216;2023-08-31T06:51:35;17.46;82.49
74224;SHT31;62585;49.706;18.216;2023-08-31T06:54:01;17.73;82.67
74224;SHT31;62585;49.706;18.216;2023-08-31T06:56:35;18.00;81.91
74224;SHT31;62585;49.706;18.216;2023-08-31T06:59:01;17.73;81.95
74224;SHT31;62585;49.706;18.216;2023-08-31T07:01:28;17.73;81.99
74224;SHT31;62585;49.706;18.216;2023-08-31T07:03:55;17.66;82.56
74224;SHT31;62585;49.706;18.216;2023-08-31T07:06:21;17.46;81.98
74224;SHT31;62585;49.706;18.216;2023-08-31T07:08:47;17.48;82.02
74224;SHT31;62585;49.706;18.216;2023-08-31T07:11:14;17.48;82.04
74224;SHT31;62585;49.706;18.216;2023-08-31T07:13:40;17.36;82.10
74224;SHT31;62585;49.706;18.216;2023-08-31T07:16:06;17.42;83.37
74224;SHT31;62585;49.706;18.216;2023-08-31T07:18:32;17.86;81.91
74224;SHT31;62585;49.706;18.216;2023-08-31T07:20:58;17.76;81.06
74224;SHT31;62585;49.706;18.216;2023-08-31T07:23:24;17.73;80.20
74224;SHT31;62585;49.706;18.216;2023-08-31T07:25:50;17.76;80.21
74224;SHT31;62585;49.706;18.216;2023-08-31T07:28:15;17.77;79.93
74224;SHT31;62585;49.706;18.216;2023-08-31T07:30:41;17.69;80.50
74224;SHT31;62585;49.706;18.216;2023-08-31T07:33:07;17.66;80.09
74224;SHT31;62585;49.706;18.216;2023-08-31T07:35:33;17.50;80.60
74224;SHT31;62585;49.706;18.216;2023-08-31T07:37:59;17.59;80.83
74224;SHT31;62585;49.706;18.216;2023-08-31T07:40:25;17.52;81.27
74224;SHT31;62585;49.706;18.216;2023-08-31T07:42:53;17.36;81.98
74224;SHT31;62585;49.706;18.216;2023-08-31T07:45:19;17.35;81.71
74224;SHT31;62585;49.706;18.216;2023-08-31T07:47:44;17.43;81.97
74224;SHT31;62585;49.706;18.216;2023-08-31T07:50:10;17.65;82.10
74224;SHT31;62585;49.706;18.216;2023-08-31T07:52:37;17.65;82.40
74224;SHT31;62585;49.706;18.216;2023-08-31T07:55:04;17.57;81.58
74224;SHT31;62585;49.706;18.216;2023-08-31T07:57:29;17.46;82.02
74224;SHT31;62585;49.706;18.216;2023-08-31T07:59:55;17.42;82.32
74224;SHT31;62585;49.706;18.216;2023-08-31T08:02:21;17.40;81.30
74224;SHT31;62585;49.706;18.216;2023-08-31T08:04:47;17.48;81.78
74224;SHT31;62585;49.706;18.216;2023-08-31T08:07:13;17.50;81.84
74224;SHT31;62585;49.706;18.216;2023-08-31T08:09:39;17.57;82.66
74224;SHT31;62585;49.706;18.216;2023-08-31T08:12:05;17.57;81.82
74224;SHT31;62585;49.706;18.216;2023-08-31T08:14:30;17.63;81.27
74224;SHT31;62585;49.706;18.216;2023-08-31T08:16:56;17.70;81.66
74224;SHT31;62585;49.706;18.216;2023-08-31T08:19:23;18.04;80.94
74224;SHT31;62585;49.706;18.216;2023-08-31T08:21:52;18.38;79.87
74224;SHT31;62585;49.706;18.216;2023-08-31T08:24:18;18.49;79.46
74224;SHT31;62585;49.706;18.216;2023-08-31T08:26:43;18.55;78.80
74224;SHT31;62585;49.706;18.216;2023-08-31T08:29:10;18.66;77.74
74224;SHT31;62585;49.706;18.216;2023-08-31T08:31:35;18.61;77.12
74224;SHT31;62585;49.706;18.216;2023-08-31T08:34:01;18.83;76.22
74224;SHT31;62585;49.706;18.216;2023-08-31T08:36:29;19.06;76.55
74224;SHT31;62585;49.706;18.216;2023-08-31T08:38:54;19.27;75.41
74224;SHT31;62585;49.706;18.216;2023-08-31T08:41:23;18.95;74.72
74224;SHT31;62585;49.706;18.216;2023-08-31T08:43:50;19.13;75.63
74224;SHT31;62585;49.706;18.216;2023-08-31T08:46:16;19.32;75.20
74224;SHT31;62585;49.706;18.216;2023-08-31T08:48:44;19.28;75.01
74224;SHT31;62585;49.706;18.216;2023-08-31T08:51:10;19.35;75.83
74224;SHT31;62585;49.706;18.216;2023-08-31T08:53:37;19.26;73.92
74224;SHT31;62585;49.706;18.216;2023-08-31T08:56:04;19.28;75.02
74224;SHT31;62585;49.706;18.216;2023-08-31T08:58:30;19.55;75.00
74224;SHT31;62585;49.706;18.216;2023-08-31T09:00:56;19.38;73.39
74224;SHT31;62585;49.706;18.216;2023-08-31T09:03:23;19.53;74.28
74224;SHT31;62585;49.706;18.216;2023-08-31T09:05:50;19.85;75.05
74224;SHT31;62585;49.706;18.216;2023-08-31T09:08:25;19.93;73.48
74224;SHT31;62585;49.706;18.216;2023-08-31T09:10:51;19.71;72.72
74224;SHT31;62585;49.706;18.216;2023-08-31T09:13:17;20.22;72.52
74224;SHT31;62585;49.706;18.216;2023-08-31T09:15:47;20.09;72.25
74224;SHT31;62585;49.706;18.216;2023-08-31T09:18:23;20.02;71.20
74224;SHT31;62585;49.706;18.216;2023-08-31T09:20:49;20.27;70.36
74224;SHT31;62585;49.706;18.216;2023-08-31T09:23:16;20.27;70.39
74224;SHT31;62585;49.706;18.216;2023-08-31T09:25:50;20.32;71.15
74224;SHT31;62585;49.706;18.216;2023-08-31T09:28:19;20.57;69.27
74224;SHT31;62585;49.706;18.216;2023-08-31T09:30:49;20.23;69.98
74224;SHT31;62585;49.706;18.216;2023-08-31T09:33:16;20.17;69.77
74224;SHT31;62585;49.706;18.216;2023-08-31T09:35:54;20.33;70.81
74224;SHT31;62585;49.706;18.216;2023-08-31T09:38:21;20.60;69.42
74224;SHT31;62585;49.706;18.216;2023-08-31T09:40:47;20.99;69.24
74224;SHT31;62585;49.706;18.216;2023-08-31T09:43:25;20.87;69.36
74224;SHT31;62585;49.706;18.216;2023-08-31T09:45:52;20.95;69.77
74224;SHT31;62585;49.706;18.216;2023-08-31T09:48:19;20.95;67.69
74224;SHT31;62585;49.706;18.216;2023-08-31T09:50:45;20.75;65.96
74224;SHT31;62585;49.706;18.216;2023-08-31T09:53:15;21.05;68.08
74224;SHT31;62585;49.706;18.216;2023-08-31T09:55:43;21.29;65.26
74224;SHT31;62585;49.706;18.216;2023-08-31T09:58:09;21.18;67.00
74224;SHT31;62585;49.706;18.216;2023-08-31T10:00:37;21.02;64.37
74224;SHT31;62585;49.706;18.216;2023-08-31T10:03:05;21.23;66.40
74224;SHT31;62585;49.706;18.216;2023-08-31T10:05:31;21.35;64.97
74224;SHT31;62585;49.706;18.216;2023-08-31T10:07:58;21.19;64.32
74224;SHT31;62585;49.706;18.216;2023-08-31T10:10:25;20.94;64.55
74224;SHT31;62585;49.706;18.216;2023-08-31T10:12:52;20.87;64.08
74224;SHT31;62585;49.706;18.216;2023-08-31T10:15:18;20.77;65.15
74224;SHT31;62585;49.706;18.216;2023-08-31T10:17:45;21.08;64.63
74224;SHT31;62585;49.706;18.216;2023-08-31T10:20:16;21.23;65.20
74224;SHT31;62585;49.706;18.216;2023-08-31T10:22:43;21.32;63.13
74224;SHT31;62585;49.706;18.216;2023-08-31T10:25:10;21.57;63.16
74224;SHT31;62585;49.706;18.216;2023-08-31T10:27:44;21.33;65.07
74224;SHT31;62585;49.706;18.216;2023-08-31T10:30:24;21.40;64.28
74224;SHT31;62585;49.706;18.216;2023-08-31T10:35:48;21.42;63.45
74224;SHT31;62585;49.706;18.216;2023-08-31T10:38:24;21.84;63.05
74224;SHT31;62585;49.706;18.216;2023-08-31T10:43:51;22.11;63.14
74224;SHT31;62585;49.706;18.216;2023-08-31T10:46:32;22.12;61.40
74224;SHT31;62585;49.706;18.216;2023-08-31T10:51:42;21.71;61.52
74224;SHT31;62585;49.706;18.216;2023-08-31T10:54:30;21.85;62.17
74224;SHT31;62585;49.706;18.216;2023-08-31T10:59:51;22.28;61.88
74224;SHT31;62585;49.706;18.216;2023-08-31T11:02:37;22.05;59.59
74224;SHT31;62585;49.706;18.216;2023-08-31T11:05:16;22.40;57.63
74224;SHT31;62585;49.706;18.216;2023-08-31T11:07:46;22.43;58.03
74224;SHT31;62585;49.706;18.216;2023-08-31T11:10:20;22.31;57.94
74224;SHT31;62585;49.706;18.216;2023-08-31T11:12:49;22.32;58.92
74224;SHT31;62585;49.706;18.216;2023-08-31T11:15:17;22.56;60.14
74224;SHT31;62585;49.706;18.216;2023-08-31T11:17:43;22.71;58.41
74224;SHT31;62585;49.706;18.216;2023-08-31T11:20:14;22.94;58.27
74224;SHT31;62585;49.706;18.216;2023-08-31T11:22:45;23.12;58.05
74224;SHT31;62585;49.706;18.216;2023-08-31T11:25:13;22.88;56.97
74224;SHT31;62585;49.706;18.216;2023-08-31T11:27:39;22.26;57.06
74224;SHT31;62585;49.706;18.216;2023-08-31T11:30:15;22.42;58.24
74224;SHT31;62585;49.706;18.216;2023-08-31T11:32:47;22.31;56.23
74224;SHT31;62585;49.706;18.216;2023-08-31T11:35:15;22.48;57.31
74224;SHT31;62585;49.706;18.216;2023-08-31T11:37:43;22.60;58.60
74224;SHT31;62585;49.706;18.216;2023-08-31T11:40:09;22.98;58.95
74224;SHT31;62585;49.706;18.216;2023-08-31T11:42:35;23.03;54.71
74224;SHT31;62585;49.706;18.216;2023-08-31T11:45:01;22.56;55.48
74224;SHT31;62585;49.706;18.216;2023-08-31T11:47:33;22.12;57.12
74224;SHT31;62585;49.706;18.216;2023-08-31T11:50:00;22.55;59.50
74224;SHT31;62585;49.706;18.216;2023-08-31T11:52:30;22.39;60.57
74224;SHT31;62585;49.706;18.216;2023-08-31T11:54:56;22.29;59.30
74224;SHT31;62585;49.706;18.216;2023-08-31T11:57:30;22.00;58.62
74224;SHT31;62585;49.706;18.216;2023-08-31T11:59:56;21.67;60.33
74224;SHT31;62585;49.706;18.216;2023-08-31T12:02:22;21.08;62.23
74224;SHT31;62585;49.706;18.216;2023-08-31T12:04:48;19.07;70.40
74224;SHT31;62585;49.706;18.216;2023-08-31T12:07:17;17.80;77.79
74224;SHT31;62585;49.706;18.216;2023-08-31T12:09:47;16.79;81.48
74224;SHT31;62585;49.706;18.216;2023-08-31T12:12:17;16.50;83.52
74224;SHT31;62585;49.706;18.216;2023-08-31T12:14:45;16.34;83.40
74224;SHT31;62585;49.706;18.216;2023-08-31T12:17:11;16.06;85.47
74224;SHT31;62585;49.706;18.216;2023-08-31T12:19:38;15.80;85.92
74224;SHT31;62585;49.706;18.216;2023-08-31T12:22:07;16.09;84.91
74224;SHT31;62585;49.706;18.216;2023-08-31T12:24:39;16.45;83.59
74224;SHT31;62585;49.706;18.216;2023-08-31T12:27:08;16.73;82.77
74224;SHT31;62585;49.706;18.216;2023-08-31T12:29:34;17.06;81.09
74224;SHT31;62585;49.706;18.216;2023-08-31T12:32:00;17.24;80.47
74224;SHT31;62585;49.706;18.216;2023-08-31T12:34:26;17.38;80.87
74224;SHT31;62585;49.706;18.216;2023-08-31T12:36:52;17.52;79.92
74224;SHT31;62585;49.706;18.216;2023-08-31T12:39:21;17.49;81.43
74224;SHT31;62585;49.706;18.216;2023-08-31T12:41:52;17.43;81.50
74224;SHT31;62585;49.706;18.216;2023-08-31T12:44:19;17.50;80.88
74224;SHT31;62585;49.706;18.216;2023-08-31T12:46:44;17.89;81.59
74224;SHT31;62585;49.706;18.216;2023-08-31T12:49:10;18.04;79.76
74224;SHT31;62585;49.706;18.216;2023-08-31T12:51:36;18.40;80.35
74224;SHT31;62585;49.706;18.216;2023-08-31T12:54:02;18.68;79.80
74224;SHT31;62585;49.706;18.216;2023-08-31T12:56:29;18.69;78.69
74224;SHT31;62585;49.706;18.216;2023-08-31T12:58:55;19.03;78.65
74224;SHT31;62585;49.706;18.216;2023-08-31T13:01:21;19.62;78.86
74224;SHT31;62585;49.706;18.216;2023-08-31T13:03:49;19.75;77.05
74224;SHT31;62585;49.706;18.216;2023-08-31T13:06:15;19.74;73.71
74224;SHT31;62585;49.706;18.216;2023-08-31T13:08:42;19.68;71.96
74224;SHT31;62585;49.706;18.216;2023-08-31T13:11:10;19.75;74.84
74224;SHT31;62585;49.706;18.216;2023-08-31T13:13:36;19.83;74.87
74224;SHT31;62585;49.706;18.216;2023-08-31T13:16:02;19.65;75.84
74224;SHT31;62585;49.706;18.216;2023-08-31T13:18:28;19.50;75.86
74224;SHT31;62585;49.706;18.216;2023-08-31T13:20:54;19.51;75.94
74224;SHT31;62585;49.706;18.216;2023-08-31T13:23:22;19.27;76.67
74224;SHT31;62585;49.706;18.216;2023-08-31T13:25:48;19.69;77.09
74224;SHT31;62585;49.706;18.216;2023-08-31T13:28:14;19.99;75.07
74224;SHT31;62585;49.706;18.216;2023-08-31T13:30:40;20.47;73.60
74224;SHT31;62585;49.706;18.216;2023-08-31T13:33:06;20.72;70.79
74224;SHT31;62585;49.706;18.216;2023-08-31T13:35:33;20.27;69.43
74224;SHT31;62585;49.706;18.216;2023-08-31T13:37:59;20.58;69.97
74224;SHT31;62585;49.706;18.216;2023-08-31T13:40:24;20.95;69.16
74224;SHT31;62585;49.706;18.216;2023-08-31T13:42:56;21.12;68.67
74224;SHT31;62585;49.706;18.216;2023-08-31T13:45:31;21.16;69.88
74224;SHT31;62585;49.706;18.216;2023-08-31T13:47:58;21.50;69.61
74224;SHT31;62585;49.706;18.216;2023-08-31T13:50:26;21.68;68.94
74224;SHT31;62585;49.706;18.216;2023-08-31T13:52:53;21.81;67.84
74224;SHT31;62585;49.706;18.216;2023-08-31T13:55:18;21.70;66.64
74224;SHT31;62585;49.706;18.216;2023-08-31T13:57:44;21.68;67.13
74224;SHT31;62585;49.706;18.216;2023-08-31T14:00:10;21.58;64.19
74224;SHT31;62585;49.706;18.216;2023-08-31T14:02:37;21.53;63.53
74224;SHT31;62585;49.706;18.216;2023-08-31T14:05:04;21.73;65.63
74224;SHT31;62585;49.706;18.216;2023-08-31T14:07:32;21.03;65.20
74224;SHT31;62585;49.706;18.216;2023-08-31T14:09:58;21.23;66.55
74224;SHT31;62585;49.706;18.216;2023-08-31T14:12:24;21.83;65.92
74224;SHT31;62585;49.706;18.216;2023-08-31T14:14:51;21.66;64.36
74224;SHT31;62585;49.706;18.216;2023-08-31T14:17:17;21.80;62.68
74224;SHT31;62585;49.706;18.216;2023-08-31T14:19:43;21.78;62.61
74224;SHT31;62585;49.706;18.216;2023-08-31T14:22:09;21.87;63.07
74224;SHT31;62585;49.706;18.216;2023-08-31T14:24:36;22.11;62.63
74224;SHT31;62585;49.706;18.216;2023-08-31T14:27:03;21.73;61.57
74224;SHT31;62585;49.706;18.216;2023-08-31T14:29:29;21.42;61.57
74224;SHT31;62585;49.706;18.216;2023-08-31T14:31:55;20.92;62.51
74224;SHT31;62585;49.706;18.216;2023-08-31T14:34:21;20.74;62.98
74224;SHT31;62585;49.706;18.216;2023-08-31T14:36:47;20.55;63.61
74224;SHT31;62585;49.706;18.216;2023-08-31T14:39:13;20.55;62.86
74224;SHT31;62585;49.706;18.216;2023-08-31T14:41:40;20.72;63.76
74224;SHT31;62585;49.706;18.216;2023-08-31T14:44:06;20.85;62.65
74224;SHT31;62585;49.706;18.216;2023-08-31T14:46:32;20.91;63.42
74224;SHT31;62585;49.706;18.216;2023-08-31T14:48:58;20.85;63.17
74224;SHT31;62585;49.706;18.216;2023-08-31T14:51:24;20.89;63.42
74224;SHT31;62585;49.706;18.216;2023-08-31T14:53:49;20.98;63.78
74224;SHT31;62585;49.706;18.216;2023-08-31T14:56:15;21.20;65.05
74224;SHT31;62585;49.706;18.216;2023-08-31T14:58:42;21.10;65.29
74224;SHT31;62585;49.706;18.216;2023-08-31T15:01:08;20.94;64.48
74224;SHT31;62585;49.706;18.216;2023-08-31T15:03:33;20.70;65.76
74224;SHT31;62585;49.706;18.216;2023-08-31T15:05:59;20.60;66.59
74224;SHT31;62585;49.706;18.216;2023-08-31T15:08:36;20.63;65.01
74224;SHT31;62585;49.706;18.216;2023-08-31T15:11:02;21.09;65.27
74224;SHT31;62585;49.706;18.216;2023-08-31T15:13:28;21.46;66.97
74224;SHT31;62585;49.706;18.216;2023-08-31T15:15:54;21.06;64.25
74224;SHT31;62585;49.706;18.216;2023-08-31T15:18:20;21.20;63.43
74224;SHT31;62585;49.706;18.216;2023-08-31T15:20:47;21.40;63.30
74224;SHT31;62585;49.706;18.216;2023-08-31T15:23:12;21.67;63.88
74224;SHT31;62585;49.706;18.216;2023-08-31T15:25:38;21.61;64.18
74224;SHT31;62585;49.706;18.216;2023-08-31T15:28:04;21.94;64.60
74224;SHT31;62585;49.706;18.216;2023-08-31T15:30:30;21.90;62.98
74224;SHT31;62585;49.706;18.216;2023-08-31T15:33:01;22.18;62.47